sensor_id;sensor_type;location;lat;lon;timestamp;temperature;humidity
16140;DHT22;8175;49.326;12.690;2023-07-20T04:06:13;14.20;99.90
16140;DHT22;8175;49.326;12.690;2023-07-20T04:08:39;14.20;99.90
16140;DHT22;8175;49.326;12.690;2023-07-20T04:11:05;14.30;99.90
16140;DHT22;8175;49.326;12.690;2023-07-20T04:13:31;14.40;99.90
16140;DHT22;8175;49.326;12.690;2023-07-20T04:15:59;14.50;99.90
16140;DHT22;8175;49.326;12.690;2023-07-20T04:23:10;14.70;99.90
16140;DHT22;8175;49.326;12.690;2023-07-20T04:25:35;14.70;99.90
16140;DHT22;8175;49.326;12.690;2023-07-20T04:57:37;15.30;99.90
16140;DHT22;8175;49.326;12.690;2023-07-20T05:00:03;15.30;99.90
16140;DHT22;8175;49.326;12.690;2023-07-20T05:02:30;15.40;99.90
16140;DHT22;8175;49.326;12.690;2023-07-20T05:04:55;15.50;99.90
16140;DHT22;8175;49.326;12.690;2023-07-20T05:07:21;15.60;99.90
16140;DHT22;8175;49.326;12.690;2023-07-20T05:09:47;15.80;99.90
16140;DHT22;8175;49.326;12.690;2023-07-20T05:12:12;15.90;99.90
16140;DHT22;8175;49.326;12.690;2023-07-20T05:14:38;16.00;99.90
16140;DHT22;8175;49.326;12.690;2023-07-20T05:17:04;16.10;99.90
16140;DHT22;8175;49.326;12.690;2023-07-20T05:19:30;16.20;99.90
16140;DHT22;8175;49.326;12.690;2023-07-20T05:21:55;16.30;99.90
16140;DHT22;8175;49.326;12.690;2023-07-20T05:24:21;16.50;99.90
16140;DHT22;8175;49.326;12.690;2023-07-20T05:26:48;16.50;99.90
16140;DHT22;8175;49.326;12.690;2023-07-20T05:29:13;16.60;99.90
16140;DHT22;8175;49.326;12.690;2023-07-20T05:31:39;16.60;99.90
16140;DHT22;8175;49.326;12.690;2023-07-20T05:34:05;16.70;99.90
16140;DHT22;8175;49.326;12.690;2023-07-20T05:36:30;16.60;99.90
16140;DHT22;8175;49.326;12.690;2023-07-20T05:38:56;16.80;99.90
16140;DHT22;8175;49.326;12.690;2023-07-20T05:41:22;16.80;99.90
16140;DHT22;8175;49.326;12.690;2023-07-20T05:43:48;17.10;99.90
16140;DHT22;8175;49.326;12.690;2023-07-20T05:46:13;17.00;99.90
16140;DHT22;8175;49.326;12.690;2023-07-20T05:48:39;17.00;99.90
16140;DHT22;8175;49.326;12.690;2023-07-20T05:51:05;17.00;99.90
16140;DHT22;8175;49.326;12.690;2023-07-20T05:53:31;17.00;99.90
16140;DHT22;8175;49.326;12.690;2023-07-20T05:55:57;17.00;99.90
16140;DHT22;8175;49.326;12.690;2023-07-20T05:58:23;17.40;99.90
16140;DHT22;8175;49.326;12.690;2023-07-20T06:00:49;17.50;99.90
16140;DHT22;8175;49.326;12.690;2023-07-20T06:03:15;17.50;99.90
16140;DHT22;8175;49.326;12.690;2023-07-20T06:05:42;17.40;99.90
16140;DHT22;8175;49.326;12.690;2023-07-20T06:08:08;17.60;99.90
16140;DHT22;8175;49.326;12.690;2023-07-20T06:10:33;17.60;99.90
16140;DHT22;8175;49.326;12.690;2023-07-20T06:12:59;17.40;99.90
16140;DHT22;8175;49.326;12.690;2023-07-20T06:15:31;17.40;99.90
16140;DHT22;8175;49.326;12.690;2023-07-20T06:17:57;17.60;99.90
16140;DHT22;8175;49.326;12.690;2023-07-20T06:20:24;17.90;99.90
16140;DHT22;8175;49.326;12.690;2023-07-20T06:22:49;18.30;99.90
16140;DHT22;8175;49.326;12.690;2023-07-20T06:25:15;18.50;99.90
16140;DHT22;8175;49.326;12.690;2023-07-20T06:27:42;18.30;99.90
16140;DHT22;8175;49.326;12.690;2023-07-20T06:30:08;17.80;99.90
16140;DHT22;8175;49.326;12.690;2023-07-20T06:32:34;17.70;99.90
16140;DHT22;8175;49.326;12.690;2023-07-20T06:34:59;17.70;99.90
16140;DHT22;8175;49.326;12.690;2023-07-20T06:37:25;17.90;99.90
16140;DHT22;8175;49.326;12.690;2023-07-20T06:39:51;18.00;99.90
16140;DHT22;8175;49.326;12.690;2023-07-20T06:42:17;18.40;99.90
16140;DHT22;8175;49.326;12.690;2023-07-20T06:44:42;18.80;99.90
16140;DHT22;8175;49.326;12.690;2023-07-20T06:47:08;19.00;99.90
16140;DHT22;8175;49.326;12.690;2023-07-20T06:49:33;19.00;99.90
16140;DHT22;8175;49.326;12.690;2023-07-20T06:51:59;18.50;99.90
16140;DHT22;8175;49.326;12.690;2023-07-20T06:54:25;17.90;99.90
16140;DHT22;8175;49.326;12.690;2023-07-20T06:56:51;17.60;99.90
16140;DHT22;8175;49.326;12.690;2023-07-20T06:59:16;17.70;99.90
16140;DHT22;8175;49.326;12.690;2023-07-20T07:01:42;18.00;99.90
16140;DHT22;8175;49.326;12.690;2023-07-20T07:04:08;18.10;99.90
16140;DHT22;8175;49.326;12.690;2023-07-20T07:06:33;18.10;99.90
16140;DHT22;8175;49.326;12.690;2023-07-20T07:09:00;18.30;99.90
16140;DHT22;8175;49.326;12.690;2023-07-20T07:11:25;18.80;99.90
16140;DHT22;8175;49.326;12.690;2023-07-20T07:13:51;18.90;99.90
16140;DHT22;8175;49.326;12.690;2023-07-20T07:16:17;18.70;99.90
16140;DHT22;8175;49.326;12.690;2023-07-20T07:18:49;18.50;99.90
16140;DHT22;8175;49.326;12.690;2023-07-20T07:21:15;18.90;99.90
16140;DHT22;8175;49.326;12.690;2023-07-20T07:23:41;19.10;99.90
16140;DHT22;8175;49.326;12.690;2023-07-20T07:26:07;19.40;99.90
16140;DHT22;8175;49.326;12.690;2023-07-20T07:28:32;19.50;99.90
16140;DHT22;8175;49.326;12.690;2023-07-20T07:30:58;19.70;99.90
16140;DHT22;8175;49.326;12.690;2023-07-20T07:33:24;19.70;99.90
16140;DHT22;8175;49.326;12.690;2023-07-20T07:35:52;19.90;99.90
16140;DHT22;8175;49.326;12.690;2023-07-20T07:38:19;20.00;99.90
16140;DHT22;8175;49.326;12.690;2023-07-20T07:40:45;20.20;99.90
16140;DHT22;8175;49.326;12.690;2023-07-20T07:43:10;21.10;99.90
16140;DHT22;8175;49.326;12.690;2023-07-20T07:45:37;20.80;99.90
16140;DHT22;8175;49.326;12.690;2023-07-20T07:48:04;20.30;99.90
16140;DHT22;8175;49.326;12.690;2023-07-20T07:50:29;20.40;99.90
16140;DHT22;8175;49.326;12.690;2023-07-20T07:52:55;22.20;99.90
16140;DHT22;8175;49.326;12.690;2023-07-20T07:55:21;23.60;99.90
16140;DHT22;8175;49.326;12.690;2023-07-20T07:57:46;24.40;99.90
16140;DHT22;8175;49.326;12.690;2023-07-20T08:00:13;24.20;99.90
16140;DHT22;8175;49.326;12.690;2023-07-20T08:02:43;24.50;99.90
16140;DHT22;8175;49.326;12.690;2023-07-20T08:05:09;25.30;99.90
16140;DHT22;8175;49.326;12.690;2023-07-20T08:07:36;25.90;99.90
16140;DHT22;8175;49.326;12.690;2023-07-20T08:10:02;25.40;99.90
16140;DHT22;8175;49.326;12.690;2023-07-20T08:12:27;25.50;99.90
16140;DHT22;8175;49.326;12.690;2023-07-20T08:14:53;25.40;99.90
16140;DHT22;8175;49.326;12.690;2023-07-20T08:17:19;25.70;99.90
16140;DHT22;8175;49.326;12.690;2023-07-20T08:19:46;24.00;99.90
16140;DHT22;8175;49.326;12.690;2023-07-20T08:22:12;23.10;99.90
16140;DHT22;8175;49.326;12.690;2023-07-20T08:24:41;24.20;99.90
16140;DHT22;8175;49.326;12.690;2023-07-20T08:27:07;25.80;99.90
16140;DHT22;8175;49.326;12.690;2023-07-20T08:29:34;27.30;99.90
16140;DHT22;8175;49.326;12.690;2023-07-20T08:31:59;26.70;98.10
16140;DHT22;8175;49.326;12.690;2023-07-20T08:34:25;26.30;98.90
16140;DHT22;8175;49.326;12.690;2023-07-20T08:36:51;26.50;96.30
16140;DHT22;8175;49.326;12.690;2023-07-20T08:39:16;26.30;93.90
16140;DHT22;8175;49.326;12.690;2023-07-20T08:41:43;26.10;94.20
16140;DHT22;8175;49.326;12.690;2023-07-20T08:44:10;25.80;93.50
16140;DHT22;8175;49.326;12.690;2023-07-20T08:46:38;24.10;95.10
16140;DHT22;8175;49.326;12.690;2023-07-20T08:49:06;22.50;98.80
16140;DHT22;8175;49.326;12.690;2023-07-20T08:51:32;21.20;99.90
16140;DHT22;8175;49.326;12.690;2023-07-20T08:53:59;21.00;99.90
16140;DHT22;8175;49.326;12.690;2023-07-20T08:56:25;22.00;99.90
16140;DHT22;8175;49.326;12.690;2023-07-20T08:58:53;24.20;96.10
16140;DHT22;8175;49.326;12.690;2023-07-20T09:01:19;24.20;94.20
16140;DHT22;8175;49.326;12.690;2023-07-20T09:03:46;24.20;93.80
16140;DHT22;8175;49.326;12.690;2023-07-20T09:06:12;25.60;92.00
16140;DHT22;8175;49.326;12.690;2023-07-20T09:08:39;26.10;90.60
16140;DHT22;8175;49.326;12.690;2023-07-20T09:11:05;26.70;91.10
16140;DHT22;8175;49.326;12.690;2023-07-20T09:13:33;27.60;86.80
16140;DHT22;8175;49.326;12.690;2023-07-20T09:15:59;28.50;83.80
16140;DHT22;8175;49.326;12.690;2023-07-20T09:18:29;29.00;78.70
16140;DHT22;8175;49.326;12.690;2023-07-20T09:21:02;28.90;77.20
16140;DHT22;8175;49.326;12.690;2023-07-20T09:23:32;29.00;75.20
16140;DHT22;8175;49.326;12.690;2023-07-20T09:25:59;27.60;71.10
16140;DHT22;8175;49.326;12.690;2023-07-20T09:28:25;27.40;70.70
16140;DHT22;8175;49.326;12.690;2023-07-20T09:30:50;27.70;69.20
16140;DHT22;8175;49.326;12.690;2023-07-20T09:33:21;28.50;66.90
16140;DHT22;8175;49.326;12.690;2023-07-20T09:35:47;27.90;65.40
16140;DHT22;8175;49.326;12.690;2023-07-20T09:38:14;28.10;67.10
16140;DHT22;8175;49.326;12.690;2023-07-20T09:40:40;28.20;64.40
16140;DHT22;8175;49.326;12.690;2023-07-20T09:43:10;27.30;66.10
16140;DHT22;8175;49.326;12.690;2023-07-20T09:45:40;27.50;67.60
16140;DHT22;8175;49.326;12.690;2023-07-20T09:48:09;27.40;68.80
16140;DHT22;8175;49.326;12.690;2023-07-20T09:50:43;27.80;66.70
16140;DHT22;8175;49.326;12.690;2023-07-20T09:53:12;26.80;69.30
16140;DHT22;8175;49.326;12.690;2023-07-20T09:55:41;26.70;70.80
16140;DHT22;8175;49.326;12.690;2023-07-20T09:58:08;25.50;72.00
16140;DHT22;8175;49.326;12.690;2023-07-20T10:00:36;24.70;76.20
16140;DHT22;8175;49.326;12.690;2023-07-20T10:03:04;25.60;75.90
16140;DHT22;8175;49.326;12.690;2023-07-20T10:05:36;26.80;71.40
16140;DHT22;8175;49.326;12.690;2023-07-20T10:08:04;28.00;65.40
16140;DHT22;8175;49.326;12.690;2023-07-20T10:10:32;26.80;65.50
16140;DHT22;8175;49.326;12.690;2023-07-20T10:13:00;26.00;71.80
16140;DHT22;8175;49.326;12.690;2023-07-20T10:15:45;27.00;67.80
16140;DHT22;8175;49.326;12.690;2023-07-20T10:18:20;27.80;63.30
16140;DHT22;8175;49.326;12.690;2023-07-20T10:20:49;28.30;62.40
16140;DHT22;8175;49.326;12.690;2023-07-20T10:23:17;28.50;60.40
16140;DHT22;8175;49.326;12.690;2023-07-20T10:25:43;28.20;61.60
16140;DHT22;8175;49.326;12.690;2023-07-20T10:28:10;28.30;58.60
16140;DHT22;8175;49.326;12.690;2023-07-20T10:30:36;27.90;60.70
16140;DHT22;8175;49.326;12.690;2023-07-20T10:33:03;28.60;59.70
16140;DHT22;8175;49.326;12.690;2023-07-20T10:35:30;28.30;58.90
16140;DHT22;8175;49.326;12.690;2023-07-20T10:38:03;26.50;60.40
16140;DHT22;8175;49.326;12.690;2023-07-20T10:40:33;25.30;63.70
16140;DHT22;8175;49.326;12.690;2023-07-20T10:43:06;26.40;63.70
16140;DHT22;8175;49.326;12.690;2023-07-20T10:45:39;27.80;62.00
16140;DHT22;8175;49.326;12.690;2023-07-20T10:48:16;28.40;58.20
16140;DHT22;8175;49.326;12.690;2023-07-20T10:50:43;27.50;60.20
16140;DHT22;8175;49.326;12.690;2023-07-20T10:53:14;27.40;59.50
16140;DHT22;8175;49.326;12.690;2023-07-20T10:55:41;27.90;58.90
16140;DHT22;8175;49.326;12.690;2023-07-20T10:58:14;29.30;57.70
16140;DHT22;8175;49.326;12.690;2023-07-20T11:01:02;29.60;54.70
16140;DHT22;8175;49.326;12.690;2023-07-20T11:03:33;29.80;52.90
16140;DHT22;8175;49.326;12.690;2023-07-20T11:05:59;29.90;53.70
16140;DHT22;8175;49.326;12.690;2023-07-20T11:08:41;29.80;53.80
16140;DHT22;8175;49.326;12.690;2023-07-20T11:11:22;28.50;54.20
16140;DHT22;8175;49.326;12.690;2023-07-20T11:14:03;26.30;58.00
16140;DHT22;8175;49.326;12.690;2023-07-20T11:16:43;25.60;59.70
16140;DHT22;8175;49.326;12.690;2023-07-20T11:19:25;26.80;57.70
16140;DHT22;8175;49.326;12.690;2023-07-20T11:21:56;27.70;55.80
16140;DHT22;8175;49.326;12.690;2023-07-20T11:24:22;27.40;55.30
16140;DHT22;8175;49.326;12.690;2023-07-20T11:26:53;26.30;57.30
16140;DHT22;8175;49.326;12.690;2023-07-20T11:29:21;27.10;58.20
16140;DHT22;8175;49.326;12.690;2023-07-20T11:31:49;27.00;56.80
16140;DHT22;8175;49.326;12.690;2023-07-20T11:34:17;25.80;58.30
16140;DHT22;8175;49.326;12.690;2023-07-20T11:36:44;24.60;61.60
16140;DHT22;8175;49.326;12.690;2023-07-20T11:39:11;24.20;63.70
16140;DHT22;8175;49.326;12.690;2023-07-20T11:41:37;25.70;63.20
16140;DHT22;8175;49.326;12.690;2023-07-20T11:44:04;27.00;59.60
16140;DHT22;8175;49.326;12.690;2023-07-20T11:46:32;28.40;56.40
16140;DHT22;8175;49.326;12.690;2023-07-20T11:49:00;28.60;54.10
16140;DHT22;8175;49.326;12.690;2023-07-20T11:51:28;29.20;53.40
16140;DHT22;8175;49.326;12.690;2023-07-20T11:53:54;29.80;52.30
16140;DHT22;8175;49.326;12.690;2023-07-20T11:56:21;29.20;52.40
16140;DHT22;8175;49.326;12.690;2023-07-20T11:58:48;28.40;53.50
16140;DHT22;8175;49.326;12.690;2023-07-20T12:01:14;28.60;54.20
16140;DHT22;8175;49.326;12.690;2023-07-20T12:03:42;27.90;53.30
16140;DHT22;8175;49.326;12.690;2023-07-20T12:06:11;26.80;52.10
16140;DHT22;8175;49.326;12.690;2023-07-20T12:08:41;25.40;55.60
16140;DHT22;8175;49.326;12.690;2023-07-20T12:11:07;26.10;54.80
16140;DHT22;8175;49.326;12.690;2023-07-20T12:13:43;27.10;53.10
16140;DHT22;8175;49.326;12.690;2023-07-20T12:16:16;28.50;52.50
16140;DHT22;8175;49.326;12.690;2023-07-20T12:18:43;29.20;51.10
16140;DHT22;8175;49.326;12.690;2023-07-20T12:21:09;30.20;50.00
16140;DHT22;8175;49.326;12.690;2023-07-20T12:23:39;30.60;49.90
16140;DHT22;8175;49.326;12.690;2023-07-20T12:26:07;29.60;49.50
16140;DHT22;8175;49.326;12.690;2023-07-20T12:28:39;27.80;50.60
16140;DHT22;8175;49.326;12.690;2023-07-20T12:31:06;26.00;52.60
16140;DHT22;8175;49.326;12.690;2023-07-20T12:33:32;24.90;54.80
16140;DHT22;8175;49.326;12.690;2023-07-20T12:35:58;25.90;56.50
16140;DHT22;8175;49.326;12.690;2023-07-20T12:38:25;27.80;50.70
16140;DHT22;8175;49.326;12.690;2023-07-20T12:40:51;28.50;50.90
16140;DHT22;8175;49.326;12.690;2023-07-20T12:43:16;27.60;50.60
16140;DHT22;8175;49.326;12.690;2023-07-20T12:45:42;27.10;53.20
16140;DHT22;8175;49.326;12.690;2023-07-20T12:48:08;27.50;51.60
16140;DHT22;8175;49.326;12.690;2023-07-20T12:50:34;27.70;53.20
16140;DHT22;8175;49.326;12.690;2023-07-20T12:53:00;26.40;53.30
16140;DHT22;8175;49.326;12.690;2023-07-20T12:55:25;25.10;55.80
16140;DHT22;8175;49.326;12.690;2023-07-20T12:57:51;24.20;57.00
16140;DHT22;8175;49.326;12.690;2023-07-20T13:00:18;24.00;57.10
16140;DHT22;8175;49.326;12.690;2023-07-20T13:02:43;23.80;57.50
16140;DHT22;8175;49.326;12.690;2023-07-20T13:05:09;24.80;59.60
16140;DHT22;8175;49.326;12.690;2023-07-20T13:07:37;26.30;55.70
16140;DHT22;8175;49.326;12.690;2023-07-20T13:10:03;27.30;53.70
16140;DHT22;8175;49.326;12.690;2023-07-20T13:12:30;28.00;53.10
16140;DHT22;8175;49.326;12.690;2023-07-20T13:14:56;28.00;50.90
16140;DHT22;8175;49.326;12.690;2023-07-20T13:17:25;28.20;49.90
16140;DHT22;8175;49.326;12.690;2023-07-20T13:19:51;27.80;49.60
16140;DHT22;8175;49.326;12.690;2023-07-20T13:22:16;26.80;51.10
16140;DHT22;8175;49.326;12.690;2023-07-20T13:24:44;26.00;51.90
16140;DHT22;8175;49.326;12.690;2023-07-20T13:27:11;25.10;53.70
16140;DHT22;8175;49.326;12.690;2023-07-20T13:29:36;25.00;53.90
16140;DHT22;8175;49.326;12.690;2023-07-20T13:32:02;25.70;54.00
16140;DHT22;8175;49.326;12.690;2023-07-20T13:34:30;26.20;52.90
16140;DHT22;8175;49.326;12.690;2023-07-20T13:36:56;25.80;53.10
16140;DHT22;8175;49.326;12.690;2023-07-20T13:39:22;25.80;54.60
16140;DHT22;8175;49.326;12.690;2023-07-20T13:41:49;26.60;52.80
16140;DHT22;8175;49.326;12.690;2023-07-20T13:44:15;26.40;53.30
16140;DHT22;8175;49.326;12.690;2023-07-20T13:46:41;27.20;52.70
16140;DHT22;8175;49.326;12.690;2023-07-20T13:49:06;28.00;51.30
16140;DHT22;8175;49.326;12.690;2023-07-20T13:51:32;28.10;50.60
16140;DHT22;8175;49.326;12.690;2023-07-20T13:53:58;27.90;50.10
16140;DHT22;8175;49.326;12.690;2023-07-20T13:56:24;28.40;49.10
16140;DHT22;8175;49.326;12.690;2023-07-20T13:58:50;28.50;48.80
16140;DHT22;8175;49.326;12.690;2023-07-20T14:01:16;28.70;49.30
16140;DHT22;8175;49.326;12.690;2023-07-20T14:03:43;27.40;49.80
16140;DHT22;8175;49.326;12.690;2023-07-20T14:06:09;26.00;52.00
16140;DHT22;8175;49.326;12.690;2023-07-20T14:08:35;26.50;52.20
16140;DHT22;8175;49.326;12.690;2023-07-20T14:11:00;26.70;51.40
16140;DHT22;8175;49.326;12.690;2023-07-20T14:13:26;27.30;50.70
16140;DHT22;8175;49.326;12.690;2023-07-20T14:15:52;28.10;49.90
16140;DHT22;8175;49.326;12.690;2023-07-20T14:18:18;27.50;48.20
16140;DHT22;8175;49.326;12.690;2023-07-20T14:20:43;27.20;50.50
16140;DHT22;8175;49.326;12.690;2023-07-20T14:23:09;27.50;50.00
16140;DHT22;8175;49.326;12.690;2023-07-20T14:25:35;27.50;49.50
16140;DHT22;8175;49.326;12.690;2023-07-20T14:28:01;27.60;50.50
16140;DHT22;8175;49.326;12.690;2023-07-20T14:30:27;28.50;49.50
16140;DHT22;8175;49.326;12.690;2023-07-20T14:32:52;29.10;48.50
16140;DHT22;8175;49.326;12.690;2023-07-20T14:35:18;28.10;46.70
16140;DHT22;8175;49.326;12.690;2023-07-20T14:37:44;27.10;47.80
16140;DHT22;8175;49.326;12.690;2023-07-20T14:40:12;26.10;49.20
16140;DHT22;8175;49.326;12.690;2023-07-20T14:42:38;26.00;50.60
16140;DHT22;8175;49.326;12.690;2023-07-20T14:45:04;27.20;51.00
16140;DHT22;8175;49.326;12.690;2023-07-20T14:47:31;28.00;49.00
16140;DHT22;8175;49.326;12.690;2023-07-20T14:50:04;28.00;47.60
16140;DHT22;8175;49.326;12.690;2023-07-20T14:52:30;28.30;47.10
16140;DHT22;8175;49.326;12.690;2023-07-20T14:54:56;28.50;46.50
16140;DHT22;8175;49.326;12.690;2023-07-20T14:57:21;28.60;46.90
16140;DHT22;8175;49.326;12.690;2023-07-20T14:59:49;28.10;46.80
16140;DHT22;8175;49.326;12.690;2023-07-20T15:02:15;27.90;47.10
16140;DHT22;8175;49.326;12.690;2023-07-20T15:04:51;27.70;46.80
16140;DHT22;8175;49.326;12.690;2023-07-20T15:07:18;27.30;49.40
16140;DHT22;8175;49.326;12.690;2023-07-20T15:09:45;27.20;47.80
16140;DHT22;8175;49.326;12.690;2023-07-20T15:12:11;27.20;48.00
16140;DHT22;8175;49.326;12.690;2023-07-20T15:14:40;27.60;48.20
16140;DHT22;8175;49.326;12.690;2023-07-20T15:17:07;28.30;46.30
16140;DHT22;8175;49.326;12.690;2023-07-20T15:19:32;28.50;46.40
16140;DHT22;8175;49.326;12.690;2023-07-20T15:21:59;28.30;45.30
16140;DHT22;8175;49.326;12.690;2023-07-20T15:24:25;28.30;45.60
16140;DHT22;8175;49.326;12.690;2023-07-20T15:26:51;28.30;44.10
16140;DHT22;8175;49.326;12.690;2023-07-20T15:29:16;28.20;46.10
16140;DHT22;8175;49.326;12.690;2023-07-20T15:31:42;28.50;44.00
16140;DHT22;8175;49.326;12.690;2023-07-20T15:34:08;28.90;44.30
16140;DHT22;8175;49.326;12.690;2023-07-20T15:36:33;28.80;44.70
16140;DHT22;8175;49.326;12.690;2023-07-20T15:38:59;29.10;43.40
16140;DHT22;8175;49.326;12.690;2023-07-20T15:41:25;28.60;43.70
16140;DHT22;8175;49.326;12.690;2023-07-20T15:43:50;28.40;41.90
16140;DHT22;8175;49.326;12.690;2023-07-20T15:48:58;28.50;42.50
16140;DHT22;8175;49.326;12.690;2023-07-20T15:51:24;28.30;41.30
16140;DHT22;8175;49.326;12.690;2023-07-20T15:53:50;27.50;42.50
16140;DHT22;8175;49.326;12.690;2023-07-20T15:56:15;27.10;43.70
16140;DHT22;8175;49.326;12.690;2023-07-20T15:58:41;27.10;44.00
16140;DHT22;8175;49.326;12.690;2023-07-20T16:01:06;26.90;43.10
16140;DHT22;8175;49.326;12.690;2023-07-20T16:03:33;27.10;44.30
16140;DHT22;8175;49.326;12.690;2023-07-20T16:05:58;27.30;43.30
16140;DHT22;8175;49.326;12.690;2023-07-20T16:08:24;27.20;43.30
16140;DHT22;8175;49.326;12.690;2023-07-20T16:10:52;26.60;44.30
16140;DHT22;8175;49.326;12.690;2023-07-20T16:13:18;26.10;44.30
16140;DHT22;8175;49.326;12.690;2023-07-20T16:15:43;26.00;45.50
16140;DHT22;8175;49.326;12.690;2023-07-20T16:18:09;26.20;44.90
16140;DHT22;8175;49.326;12.690;2023-07-20T16:20:35;26.90;44.30
16140;DHT22;8175;49.326;12.690;2023-07-20T16:23:00;27.60;43.70
16140;DHT22;8175;49.326;12.690;2023-07-20T16:25:29;27.40;42.30
16140;DHT22;8175;49.326;12.690;2023-07-20T16:27:54;27.30;43.70
16140;DHT22;8175;49.326;12.690;2023-07-20T16:30:20;27.20;44.30
16140;DHT22;8175;49.326;12.690;2023-07-20T16:32:46;27.20;43.40
16140;DHT22;8175;49.326;12.690;2023-07-20T16:35:11;26.90;43.50
16140;DHT22;8175;49.326;12.690;2023-07-20T16:37:37;26.80;45.10
16140;DHT22;8175;49.326;12.690;2023-07-20T16:40:07;27.00;45.00
16140;DHT22;8175;49.326;12.690;2023-07-20T16:42:34;26.90;44.10
16140;DHT22;8175;49.326;12.690;2023-07-20T16:45:00;26.50;45.80
16140;DHT22;8175;49.326;12.690;2023-07-20T16:47:26;26.60;44.40
16140;DHT22;8175;49.326;12.690;2023-07-20T16:49:51;26.70;44.30
16140;DHT22;8175;49.326;12.690;2023-07-20T16:52:17;26.60;45.70
16140;DHT22;8175;49.326;12.690;2023-07-20T16:54:42;26.20;45.10
16140;DHT22;8175;49.326;12.690;2023-07-20T16:57:08;25.80;44.80
16140;DHT22;8175;49.326;12.690;2023-07-20T16:59:34;25.70;46.10
16140;DHT22;8175;49.326;12.690;2023-07-20T17:02:01;25.70;45.00
16140;DHT22;8175;49.326;12.690;2023-07-20T17:04:27;25.70;46.10
16140;DHT22;8175;49.326;12.690;2023-07-20T17:06:52;25.30;45.50
16140;DHT22;8175;49.326;12.690;2023-07-20T17:09:18;25.10;46.40
16140;DHT22;8175;49.326;12.690;2023-07-20T17:11:44;24.50;47.20
16140;DHT22;8175;49.326;12.690;2023-07-20T17:14:09;24.00;48.30
16140;DHT22;8175;49.326;12.690;2023-07-20T17:16:38;23.60;48.90
16140;DHT22;8175;49.326;12.690;2023-07-20T17:19:04;23.20;49.40
16140;DHT22;8175;49.326;12.690;2023-07-20T17:21:29;23.10;50.10
16140;DHT22;8175;49.326;12.690;2023-07-20T17:23:57;23.10;50.40
16140;DHT22;8175;49.326;12.690;2023-07-20T17:26:23;23.40;50.10
16140;DHT22;8175;49.326;12.690;2023-07-20T17:28:48;23.40;49.60
16140;DHT22;8175;49.326;12.690;2023-07-20T17:31:15;23.20;50.00
16140;DHT22;8175;49.326;12.690;2023-07-20T17:33:40;23.30;50.50
16140;DHT22;8175;49.326;12.690;2023-07-20T17:36:06;23.50;50.10
16140;DHT22;8175;49.326;12.690;2023-07-20T17:38:34;23.90;48.50
16140;DHT22;8175;49.326;12.690;2023-07-20T17:41:00;24.30;49.40
16140;DHT22;8175;49.326;12.690;2023-07-20T17:43:25;24.40;49.10
16140;DHT22;8175;49.326;12.690;2023-07-20T17:45:51;24.70;49.70
16140;DHT22;8175;49.326;12.690;2023-07-20T17:48:18;24.70;49.40
16140;DHT22;8175;49.326;12.690;2023-07-20T17:50:44;24.60;49.70
16140;DHT22;8175;49.326;12.690;2023-07-20T17:53:11;24.30;49.30
16140;DHT22;8175;49.326;12.690;2023-07-20T17:55:37;24.00;50.30
16140;DHT22;8175;49.326;12.690;2023-07-20T17:58:02;23.70;50.90
16140;DHT22;8175;49.326;12.690;2023-07-20T18:00:29;23.40;51.20
16140;DHT22;8175;49.326;12.690;2023-07-20T18:02:56;23.10;52.40
16140;DHT22;8175;49.326;12.690;2023-07-20T18:05:21;22.70;53.10
16140;DHT22;8175;49.326;12.690;2023-07-20T18:07:47;22.40;55.20
16140;DHT22;8175;49.326;12.690;2023-07-20T18:10:13;22.10;55.20
16140;DHT22;8175;49.326;12.690;2023-07-20T18:12:39;21.90;54.90
16140;DHT22;8175;49.326;12.690;2023-07-20T18:15:06;21.80;56.80
16140;DHT22;8175;49.326;12.690;2023-07-20T18:17:32;21.70;57.10
16140;DHT22;8175;49.326;12.690;2023-07-20T18:19:58;21.50;56.60
16140;DHT22;8175;49.326;12.690;2023-07-20T18:22:23;21.30;57.70
16140;DHT22;8175;49.326;12.690;2023-07-20T18:24:50;21.10;58.10
16140;DHT22;8175;49.326;12.690;2023-07-20T18:27:16;21.00;57.60
16140;DHT22;8175;49.326;12.690;2023-07-20T18:29:45;20.80;58.20
16140;DHT22;8175;49.326;12.690;2023-07-20T18:32:11;20.70;58.40
16140;DHT22;8175;49.326;12.690;2023-07-20T18:34:37;20.60;60.90
16140;DHT22;8175;49.326;12.690;2023-07-20T18:37:03;20.30;62.90
16140;DHT22;8175;49.326;12.690;2023-07-20T18:39:29;20.00;63.90
16140;DHT22;8175;49.326;12.690;2023-07-20T18:41:58;19.70;64.10
16140;DHT22;8175;49.326;12.690;2023-07-20T18:44:25;19.40;64.80
16140;DHT22;8175;49.326;12.690;2023-07-20T18:46:51;19.20;67.10
16140;DHT22;8175;49.326;12.690;2023-07-20T18:49:17;19.10;67.30
16140;DHT22;8175;49.326;12.690;2023-07-20T18:51:43;18.90;67.40
16140;DHT22;8175;49.326;12.690;2023-07-20T18:54:08;18.80;68.70
16140;DHT22;8175;49.326;12.690;2023-07-20T18:56:34;18.60;68.70
16140;DHT22;8175;49.326;12.690;2023-07-20T18:59:00;18.50;70.30
16140;DHT22;8175;49.326;12.690;2023-07-20T19:01:25;18.30;70.30
16140;DHT22;8175;49.326;12.690;2023-07-20T19:03:53;18.10;71.10
16140;DHT22;8175;49.326;12.690;2023-07-20T19:06:19;18.00;72.90
16140;DHT22;8175;49.326;12.690;2023-07-20T19:08:45;17.80;74.20
16140;DHT22;8175;49.326;12.690;2023-07-20T19:11:10;17.70;76.80
16140;DHT22;8175;49.326;12.690;2023-07-20T19:13:36;17.70;79.00
16140;DHT22;8175;49.326;12.690;2023-07-20T19:16:02;17.60;79.60
16140;DHT22;8175;49.326;12.690;2023-07-20T19:18:32;17.60;80.80
16140;DHT22;8175;49.326;12.690;2023-07-20T19:20:59;17.50;82.50
16140;DHT22;8175;49.326;12.690;2023-07-20T19:23:25;17.40;84.10
16140;DHT22;8175;49.326;12.690;2023-07-20T19:25:51;17.40;84.90
16140;DHT22;8175;49.326;12.690;2023-07-20T19:28:20;17.40;86.90
16140;DHT22;8175;49.326;12.690;2023-07-20T19:30:45;17.20;87.10
16140;DHT22;8175;49.326;12.690;2023-07-20T19:33:11;17.10;89.00
16140;DHT22;8175;49.326;12.690;2023-07-20T19:35:37;16.90;91.20
16140;DHT22;8175;49.326;12.690;2023-07-20T19:38:03;16.70;92.40
16140;DHT22;8175;49.326;12.690;2023-07-20T19:40:31;16.60;95.80
16140;DHT22;8175;49.326;12.690;2023-07-20T19:42:56;16.60;96.90
16140;DHT22;8175;49.326;12.690;2023-07-20T19:45:22;16.50;98.40
16140;DHT22;8175;49.326;12.690;2023-07-20T19:47:49;16.50;99.90
16140;DHT22;8175;49.326;12.690;2023-07-20T19:50:16;16.60;99.90
16140;DHT22;8175;49.326;12.690;2023-07-20T19:52:41;16.70;99.90
16140;DHT22;8175;49.326;12.690;2023-07-20T19:55:09;16.80;99.90
16140;DHT22;8175;49.326;12.690;2023-07-20T19:57:36;16.80;99.90
16140;DHT22;8175;49.326;12.690;2023-07-20T20:00:02;16.70;99.90
16140;DHT22;8175;49.326;12.690;2023-07-20T20:02:30;16.70;99.90
16140;DHT22;8175;49.326;12.690;2023-07-20T20:04:56;16.60;99.90
16140;DHT22;8175;49.326;12.690;2023-07-20T20:07:21;16.60;99.90
16140;DHT22;8175;49.326;12.690;2023-07-20T20:09:47;16.50;99.90